createdAt,value
2024-03-05T00:00:29.302Z,100365.80
2024-03-05T00:01:32.478Z,100362.31
2024-03-05T00:02:37.484Z,100363.23
2024-03-05T00:03:40.121Z,100370.20
2024-03-05T00:04:42.322Z,100364.14
2024-03-05T00:05:44.308Z,100367.70
2024-03-05T00:06:46.501Z,100365.90
2024-03-05T00:07:49.236Z,100362.47
2024-03-05T00:08:51.454Z,100360.70
2024-03-05T00:09:53.501Z,100369.58
2024-03-05T00:10:55.720Z,100366.98
2024-03-05T00:11:58.285Z,100360.86
2024-03-05T00:13:00.664Z,100366.95
2024-03-05T00:14:04.088Z,100366.95
2024-03-05T00:15:07.675Z,100359.19
2024-03-05T00:16:09.995Z,100358.26
2024-03-05T00:17:12.266Z,100362.72
2024-03-05T00:18:14.414Z,100360.05
2024-03-05T00:19:16.555Z,100358.35
2024-03-05T00:20:18.864Z,100361.88
2024-03-05T00:21:20.832Z,100351.33
2024-03-05T00:22:23.081Z,100347.83
2024-03-05T00:23:25.206Z,100351.33
2024-03-05T00:24:27.450Z,100352.20
2024-03-05T00:25:32.030Z,100342.61
2024-03-05T00:26:34.524Z,100352.25
2024-03-05T00:27:37.025Z,100358.47
2024-03-05T00:28:39.156Z,100349.81
2024-03-05T00:29:41.832Z,100348.94
2024-03-05T00:30:44.331Z,100346.31
2024-03-05T00:31:46.564Z,100345.54
2024-03-05T00:32:48.614Z,100341.12
2024-03-05T00:33:50.912Z,100348.14
2024-03-05T00:34:53.461Z,100340.25
2024-03-05T00:35:55.767Z,100339.38
2024-03-05T00:36:58.181Z,100338.48
2024-03-05T00:38:00.216Z,100339.41
2024-03-05T00:39:02.886Z,100337.62
2024-03-05T00:40:06.111Z,100334.12
2024-03-05T00:41:08.735Z,100341.05
2024-03-05T00:42:10.876Z,100339.36
2024-03-05T00:43:13.186Z,100335.86
2024-03-05T00:44:15.416Z,100333.23
2024-03-05T00:45:17.908Z,100334.12
2024-03-05T00:46:21.140Z,100338.48
2024-03-05T00:47:24.342Z,100340.22
2024-03-05T00:48:27.103Z,100342.85
2024-03-05T00:49:29.263Z,100345.56
2024-03-05T00:50:31.429Z,100343.90
2024-03-05T00:51:33.510Z,100340.46
2024-03-05T00:52:36.032Z,100345.56
2024-03-05T00:53:38.214Z,100357.91
2024-03-05T00:54:40.365Z,100349.16
2024-03-05T00:55:42.623Z,100347.42
2024-03-05T00:56:45.282Z,100342.94
2024-03-05T00:57:47.493Z,100349.93
2024-03-05T00:58:49.716Z,100347.33
2024-03-05T00:59:52.338Z,100350.77
2024-03-05T01:00:55.088Z,100352.56
2024-03-05T01:01:57.404Z,100363.05
2024-03-05T01:03:00.417Z,100341.17
2024-03-05T01:04:02.653Z,100345.54
2024-03-05T01:05:05.516Z,100350.83
2024-03-05T01:06:07.993Z,100350.80
2024-03-05T01:07:10.086Z,100349.87
2024-03-05T01:08:12.149Z,100353.39
2024-03-05T01:09:14.162Z,100349.00
2024-03-05T01:10:16.554Z,100353.39
2024-03-05T01:11:18.954Z,100349.90
2024-03-05T01:12:21.106Z,100345.48
2024-03-05T01:13:23.301Z,100349.00
2024-03-05T01:14:25.586Z,100350.80
2024-03-05T01:15:27.844Z,100350.02
2024-03-05T01:16:30.262Z,100345.69
2024-03-05T01:17:33.661Z,100349.21
2024-03-05T01:18:35.695Z,100343.90
2024-03-05T01:19:37.947Z,100350.05
2024-03-05T01:20:40.717Z,100354.41
2024-03-05T01:21:43.057Z,100350.95
2024-03-05T01:22:46.312Z,100350.02
2024-03-05T01:23:49.123Z,100343.90
2024-03-05T01:24:51.233Z,100351.81
2024-03-05T01:25:53.664Z,100353.58
2024-03-05T01:26:56.010Z,100352.68
2024-03-05T01:27:58.585Z,100348.34
2024-03-05T01:29:00.819Z,100351.00
2024-03-05T01:30:04.622Z,100349.27
2024-03-05T01:31:08.188Z,100351.00
2024-03-05T01:32:10.346Z,100351.84
2024-03-05T01:33:12.649Z,100348.34
2024-03-05T01:34:15.808Z,100343.06
2024-03-05T01:35:18.136Z,100350.14
2024-03-05T01:36:20.616Z,100350.08
2024-03-05T01:37:23.247Z,100343.06
2024-03-05T01:38:25.839Z,100350.08
2024-03-05T01:39:28.764Z,100353.62
2024-03-05T01:40:31.558Z,100351.03
2024-03-05T01:41:34.193Z,100355.45
2024-03-05T01:42:36.330Z,100346.64
2024-03-05T01:43:38.600Z,100357.12
2024-03-05T01:44:40.701Z,100351.03
2024-03-05T01:45:42.982Z,100348.41
2024-03-05T01:46:50.979Z,100350.11
2024-03-05T01:47:53.499Z,100356.26
2024-03-05T01:48:56.267Z,100356.32
2024-03-05T01:50:02.029Z,100354.53
2024-03-05T01:51:05.019Z,100355.45
2024-03-05T01:52:07.485Z,100356.32
2024-03-05T01:53:12.422Z,100355.39
2024-03-05T01:54:16.576Z,100354.53
2024-03-05T01:55:23.437Z,100352.77
2024-03-05T01:56:26.044Z,100356.32
2024-03-05T01:57:28.953Z,100359.75
2024-03-05T01:58:31.809Z,100360.70
2024-03-05T01:59:35.008Z,100360.65
2024-03-05T02:00:37.510Z,100359.81
2024-03-05T02:01:39.753Z,100363.30
2024-03-05T02:02:45.282Z,100354.59
2024-03-05T02:03:47.719Z,100363.28
2024-03-05T02:04:52.778Z,100361.52
2024-03-05T02:05:58.613Z,100361.52
2024-03-05T02:07:02.087Z,100358.05
2024-03-05T02:08:04.890Z,100359.78
2024-03-05T02:09:07.241Z,100358.05
2024-03-05T02:10:10.629Z,100361.58
2024-03-05T02:11:13.622Z,100358.98
2024-03-05T02:12:16.493Z,100360.77
2024-03-05T02:13:18.843Z,100354.64
2024-03-05T02:14:21.405Z,100355.59
2024-03-05T02:15:23.614Z,100355.59
2024-03-05T02:16:26.348Z,100356.52
2024-03-05T02:17:28.971Z,100365.30
2024-03-05T02:18:30.973Z,100360.88
2024-03-05T02:19:33.069Z,100356.52
2024-03-05T02:20:35.720Z,100362.70
2024-03-05T02:21:37.858Z,100350.48
2024-03-05T02:22:41.046Z,100353.11
2024-03-05T02:23:43.054Z,100352.27
2024-03-05T02:24:45.444Z,100347.86
2024-03-05T02:25:47.978Z,100355.88
2024-03-05T02:26:50.829Z,100355.82
2024-03-05T02:27:53.205Z,100354.95
2024-03-05T02:28:57.729Z,100353.20
2024-03-05T02:30:00.882Z,100354.95
2024-03-05T02:31:03.430Z,100353.25
2024-03-05T02:32:07.971Z,100353.25
2024-03-05T02:33:11.111Z,100349.79
2024-03-05T02:34:14.360Z,100360.30
2024-03-05T02:35:17.092Z,100351.58
2024-03-05T02:36:19.326Z,100356.83
2024-03-05T02:37:22.014Z,100362.09
2024-03-05T02:38:24.619Z,100362.95
2024-03-05T02:39:27.300Z,100351.63
2024-03-05T02:40:30.053Z,100359.48
2024-03-05T02:41:32.214Z,100365.66
2024-03-05T02:42:37.160Z,100365.69
2024-03-05T02:43:39.504Z,100370.97
2024-03-05T02:44:41.694Z,100366.63
2024-03-05T02:45:44.000Z,100364.06
2024-03-05T02:46:46.210Z,100364.93
2024-03-05T02:47:48.594Z,100365.77
2024-03-05T02:48:50.766Z,100364.88
2024-03-05T02:49:53.122Z,100362.19
2024-03-05T02:50:55.418Z,100370.09
2024-03-05T02:51:57.813Z,100365.71
2024-03-05T02:52:59.927Z,100362.19
2024-03-05T02:54:01.994Z,100361.33
2024-03-05T02:55:05.330Z,100365.69
2024-03-05T02:56:09.079Z,100364.81
2024-03-05T02:57:11.915Z,100364.84
2024-03-05T02:58:13.924Z,100359.59
2024-03-05T02:59:17.667Z,100363.11
2024-03-05T03:00:20.653Z,100356.19
2024-03-05T03:01:26.382Z,100364.93
2024-03-05T08:53:47.249Z,100364.06
2024-03-05T08:54:49.363Z,100364.84
2024-03-05T08:55:51.403Z,100367.28
2024-03-05T08:56:54.801Z,100366.33
2024-03-05T08:57:56.945Z,100362.59
2024-03-05T08:59:00.447Z,100366.92
2024-03-05T09:00:13.851Z,100358.84
2024-03-05T09:01:08.637Z,100369.14
2024-03-05T09:02:11.133Z,100363.80
2024-03-05T09:03:13.966Z,100366.30
2024-03-05T09:04:16.767Z,100365.34
2024-03-05T09:05:19.179Z,100362.61
2024-03-05T09:06:21.377Z,100357.33
2024-03-05T09:07:24.346Z,100364.34
2024-03-05T09:08:26.856Z,100363.38
2024-03-05T09:09:29.031Z,100362.47
2024-03-05T09:10:31.474Z,100365.87
2024-03-05T09:11:33.638Z,100361.40
2024-03-05T09:12:36.306Z,100360.35
2024-03-05T09:13:42.968Z,100361.11
2024-03-05T09:14:45.483Z,100358.42
2024-03-05T09:15:47.586Z,100360.05
2024-03-05T09:16:49.970Z,100356.38
2024-03-05T09:17:52.431Z,100352.02
2024-03-05T09:18:54.671Z,100352.02
2024-03-05T09:19:57.054Z,100351.15
2024-03-05T09:20:59.291Z,100343.16
2024-03-05T09:22:01.217Z,100347.53
2024-03-05T09:23:03.882Z,100344.80
2024-03-05T09:24:06.677Z,100343.94
2024-03-05T09:25:09.570Z,100342.11
2024-03-05T09:26:12.341Z,100338.55
2024-03-05T09:27:14.886Z,100349.89
2024-03-05T09:28:17.344Z,100343.52
2024-03-05T09:29:20.601Z,100346.84
2024-03-05T09:30:23.406Z,100345.81
2024-03-05T09:31:25.697Z,100342.95
2024-03-05T09:32:28.375Z,100334.83
2024-03-05T09:33:31.713Z,100336.45
2024-03-05T09:34:34.628Z,100333.64
2024-03-05T09:35:36.738Z,100330.84
2024-03-05T09:36:39.463Z,100333.44
2024-03-05T09:37:43.176Z,100337.76
2024-03-05T09:38:45.573Z,100343.80
2024-03-05T09:39:48.369Z,100328.80
2024-03-05T09:40:51.730Z,100339.27
2024-03-05T09:41:53.995Z,100336.48
2024-03-05T09:42:59.915Z,100339.06
2024-03-05T09:44:02.181Z,100328.31
2024-03-05T09:45:05.869Z,100337.87
2024-03-05T09:46:09.376Z,100336.03
2024-03-05T09:47:13.747Z,100330.59
2024-03-05T09:48:18.622Z,100324.20
2024-03-05T09:49:23.387Z,100320.49
2024-03-05T09:50:26.180Z,100330.02
2024-03-05T09:51:30.038Z,100320.05
2024-03-05T09:52:32.838Z,100320.80
2024-03-05T09:53:35.584Z,100324.09
2024-03-05T09:54:38.426Z,100325.70
2024-03-05T09:55:41.493Z,100325.59
2024-03-05T09:56:45.696Z,100325.47
2024-03-05T09:57:49.151Z,100321.81
2024-03-05T09:58:52.190Z,100327.91
2024-03-05T09:59:55.450Z,100321.63
2024-03-05T10:01:00.728Z,100319.78
2024-03-05T10:02:03.357Z,100313.50
2024-03-05T10:03:07.264Z,100315.07
2024-03-05T10:04:15.268Z,100325.55
2024-03-05T10:05:18.603Z,100317.54
2024-03-05T10:06:20.995Z,100317.41
2024-03-05T10:07:27.513Z,100310.14
2024-03-05T10:08:30.348Z,100316.16
2024-03-05T10:09:32.502Z,100313.31
2024-03-05T10:10:34.987Z,100309.73
2024-03-05T10:11:38.186Z,100317.69
2024-03-05T10:12:41.230Z,100314.05
2024-03-05T10:13:43.697Z,100313.93
2024-03-05T10:14:46.329Z,100309.33
2024-03-05T10:15:48.662Z,100311.86
2024-03-05T10:16:54.847Z,100316.23
2024-03-05T10:17:57.217Z,100312.41
2024-03-05T10:18:59.549Z,100310.39
2024-03-05T10:20:01.976Z,100307.48
2024-03-05T10:21:22.606Z,100310.01
2024-03-05T10:22:24.800Z,100307.36
2024-03-05T10:23:29.199Z,100302.81
2024-03-05T10:24:31.569Z,100309.72
2024-03-05T10:25:37.032Z,100302.49
2024-03-05T10:26:40.134Z,100296.26
2024-03-05T10:27:50.099Z,100303.16
2024-03-05T10:28:52.864Z,100305.71
2024-03-05T10:29:55.234Z,100297.63
2024-03-05T10:31:00.898Z,100296.69
2024-03-05T10:32:06.748Z,100291.39
2024-03-05T10:33:10.370Z,100292.25
2024-03-05T10:34:14.775Z,100294.04
2024-03-05T10:35:16.966Z,100291.39
2024-03-05T10:37:36.931Z,100282.80
2024-03-05T10:38:39.997Z,100285.95
2024-03-05T10:39:42.953Z,100284.89
2024-03-05T10:40:47.275Z,100281.20
2024-03-05T10:41:54.152Z,100283.03
2024-03-05T10:42:58.699Z,100281.94
2024-03-05T10:44:02.256Z,100289.76
2024-03-05T10:45:07.801Z,100281.59
2024-03-05T10:46:11.628Z,100283.25
2024-03-05T10:47:14.352Z,100275.13
2024-03-05T10:48:18.068Z,100278.57
2024-03-05T10:49:22.215Z,100277.64
2024-03-05T10:50:29.858Z,100287.26
2024-03-05T10:51:40.309Z,100279.23
2024-03-05T10:52:44.065Z,100279.23
2024-03-05T10:53:49.493Z,100277.37
2024-03-05T10:54:55.421Z,100275.50
2024-03-05T10:55:58.263Z,100278.92
2024-03-05T10:57:01.441Z,100269.09
2024-03-05T10:58:05.364Z,100264.72
2024-03-05T10:59:08.141Z,100260.27
2024-03-05T11:00:12.910Z,100258.41
2024-03-05T11:01:23.220Z,100264.58
2024-03-05T11:02:26.137Z,100259.12
2024-03-05T11:03:40.106Z,100263.44
2024-03-05T11:04:42.818Z,100266.02
2024-03-05T11:05:51.492Z,100269.47
2024-03-05T11:08:18.166Z,100260.77
2024-03-05T11:09:23.048Z,100261.26
2024-03-05T11:10:27.497Z,100254.08
2024-03-05T11:11:30.569Z,100256.67
2024-03-05T11:12:33.789Z,100255.70
2024-03-05T11:13:36.857Z,100252.11
2024-03-05T11:14:40.471Z,100260.94
2024-03-05T11:15:43.923Z,100253.77
2024-03-05T11:17:07.881Z,100251.94
2024-03-05T11:18:33.446Z,100256.24
2024-03-05T11:20:53.436Z,100251.75
2024-03-05T11:21:56.013Z,100252.30
2024-03-05T11:22:58.234Z,100254.80
2024-03-05T11:24:02.926Z,100243.14
2024-03-05T11:25:06.588Z,100251.75
2024-03-05T11:26:20.580Z,100256.06
2024-03-05T11:27:24.370Z,100254.19
2024-03-05T11:28:27.973Z,100254.88
2024-03-05T11:29:33.719Z,100248.55
2024-03-05T11:30:36.040Z,100248.55
2024-03-05T11:31:38.186Z,100252.07
2024-03-05T11:32:40.590Z,100256.45
2024-03-05T11:33:46.928Z,100253.01
2024-03-05T11:34:52.918Z,100245.97
2024-03-05T11:35:57.541Z,100238.94
2024-03-05T11:37:11.218Z,100246.83
2024-03-05T11:38:17.924Z,100242.23
2024-03-05T11:39:20.636Z,100247.40
2024-03-05T11:40:32.071Z,100246.53
2024-03-05T11:41:40.605Z,100244.10
2024-03-05T11:42:46.616Z,100244.89
2024-03-05T11:43:49.457Z,100241.37
2024-03-05T11:44:54.720Z,100247.55
2024-03-05T11:45:57.437Z,100242.52
2024-03-05T11:46:59.696Z,100240.84
2024-03-05T11:48:04.117Z,100249.56
2024-03-05T11:49:07.724Z,100246.83
2024-03-05T11:50:10.880Z,100245.11
2024-03-05T11:51:13.590Z,100245.83
2024-03-05T11:52:18.031Z,100243.80
2024-03-05T11:53:20.317Z,100247.25
2024-03-05T11:54:25.028Z,100240.03
2024-03-05T11:55:28.176Z,100236.44
2024-03-05T11:56:31.796Z,100242.47
2024-03-05T11:57:34.110Z,100235.20
2024-03-05T11:58:36.690Z,100234.98
2024-03-05T11:59:40.859Z,100236.78
2024-03-05T12:01:45.260Z,100238.80
2024-03-05T12:04:07.363Z,100240.52
2024-03-05T12:05:12.467Z,100237.71
2024-03-05T12:06:18.604Z,100241.30
2024-03-05T12:07:21.539Z,100248.20
2024-03-05T12:08:24.405Z,100242.39
2024-03-05T12:09:26.565Z,100247.25
2024-03-05T12:10:30.576Z,100245.27
2024-03-05T12:11:32.984Z,100241.75
2024-03-05T12:12:35.509Z,100243.66
2024-03-05T12:13:38.247Z,100244.73
2024-03-05T12:14:52.458Z,100249.19
2024-03-05T12:15:54.856Z,100248.41
2024-03-05T12:16:59.314Z,100244.10
2024-03-05T12:18:09.056Z,100245.97
2024-03-05T12:19:11.334Z,100245.19
2024-03-05T12:20:20.828Z,100247.01
2024-03-05T12:21:26.988Z,100240.91
2024-03-05T12:22:27.411Z,100248.88
2024-03-05T12:23:41.287Z,100239.11
2024-03-05T12:24:33.764Z,100245.51
2024-03-05T12:25:36.784Z,100235.81
2024-03-05T12:26:39.307Z,100242.28
2024-03-05T12:27:46.819Z,100242.35
2024-03-05T12:28:49.975Z,100237.22
2024-03-05T12:29:52.534Z,100241.73
2024-03-05T12:30:55.884Z,100240.02
2024-03-05T12:32:00.210Z,100240.16
2024-03-05T12:33:02.593Z,100242.96
2024-03-05T12:34:04.783Z,100240.37
2024-03-05T12:35:07.783Z,100238.58
2024-03-05T12:36:10.584Z,100244.94
2024-03-05T12:37:13.254Z,100236.10
2024-03-05T12:38:15.809Z,100231.72
2024-03-05T12:39:18.870Z,100239.77
2024-03-05T12:40:22.911Z,100234.52
2024-03-05T12:41:26.189Z,100240.73
2024-03-05T12:42:28.853Z,100231.87
2024-03-05T12:43:31.644Z,100235.56
2024-03-05T12:44:34.898Z,100234.63
2024-03-05T12:45:38.022Z,100237.29
2024-03-05T12:46:40.394Z,100234.70
2024-03-05T12:47:55.430Z,100236.42
2024-03-05T12:48:59.555Z,100234.95
2024-03-05T12:50:04.923Z,100237.60
2024-03-05T12:51:11.250Z,100237.60
2024-03-05T12:52:19.773Z,100232.44
2024-03-05T12:53:23.821Z,100233.51
2024-03-05T12:54:26.642Z,100237.03
2024-03-05T12:55:31.984Z,100236.95
2024-03-05T12:56:44.524Z,100235.16
2024-03-05T12:57:49.561Z,100236.02
2024-03-05T12:58:53.867Z,100233.23
2024-03-05T13:00:04.815Z,100235.70
2024-03-05T13:01:08.503Z,100241.02
2024-03-05T13:02:13.152Z,100234.70
2024-03-05T13:03:18.000Z,100240.95
2024-03-05T13:04:22.577Z,100234.63
2024-03-05T13:05:26.632Z,100235.56
2024-03-05T13:06:32.263Z,100240.87
2024-03-05T13:07:35.898Z,100247.13
2024-03-05T13:08:38.602Z,100241.88
2024-03-05T13:09:40.833Z,100244.47
2024-03-05T13:10:43.432Z,100247.19
2024-03-05T13:11:47.146Z,100244.61
2024-03-05T13:12:49.508Z,100240.26
2024-03-05T13:13:51.570Z,100251.95
2024-03-05T13:14:53.873Z,100249.23
2024-03-05T13:15:56.153Z,100243.20
2024-03-05T13:16:59.840Z,100247.72
2024-03-05T13:18:02.575Z,100249.58
2024-03-05T13:19:05.402Z,100247.92
2024-03-05T13:20:08.624Z,100246.20
2024-03-05T13:21:10.810Z,100245.34
2024-03-05T13:22:14.350Z,100250.75
2024-03-05T13:23:18.982Z,100243.72
2024-03-05T13:24:21.780Z,100249.16
2024-03-05T13:25:26.155Z,100252.82
2024-03-05T13:26:28.861Z,100252.03
2024-03-05T13:27:31.370Z,100248.65
2024-03-05T13:28:33.627Z,100242.48
2024-03-05T13:29:35.934Z,100251.41
2024-03-05T13:30:38.133Z,100250.55
2024-03-05T13:31:44.144Z,100254.20
2024-03-05T13:32:48.741Z,100251.55
2024-03-05T13:33:51.420Z,100251.55
2024-03-05T13:34:53.503Z,100250.81
2024-03-05T13:35:56.071Z,100248.09
2024-03-05T13:36:58.749Z,100245.58
2024-03-05T13:38:01.757Z,100248.30
2024-03-05T13:39:05.926Z,100247.44
2024-03-05T13:40:10.116Z,100247.44
2024-03-05T13:41:12.951Z,100251.81
2024-03-05T13:42:17.561Z,100252.75
2024-03-05T13:43:19.701Z,100240.47
2024-03-05T13:44:22.160Z,100254.67
2024-03-05T13:45:24.044Z,100252.12
2024-03-05T13:46:26.348Z,100244.23
2024-03-05T13:47:31.513Z,100247.88
2024-03-05T13:48:32.752Z,100256.70
2024-03-05T13:49:35.146Z,100254.97
2024-03-05T13:50:37.554Z,100258.55
2024-03-05T13:51:40.272Z,100258.55
2024-03-05T13:52:44.358Z,100258.63
2024-03-05T13:53:46.553Z,100263.13
2024-03-05T13:54:49.609Z,100252.52
2024-03-05T13:57:02.386Z,100256.63
2024-03-05T13:58:04.590Z,100259.98
2024-03-05T13:59:06.959Z,100256.47
2024-03-05T14:00:11.765Z,100248.52
2024-03-05T14:01:16.751Z,100252.03
2024-03-05T14:02:19.166Z,100255.55
2024-03-05T14:03:21.828Z,100251.95
2024-03-05T14:04:24.976Z,100258.13
2024-03-05T14:05:27.007Z,100252.82
2024-03-05T14:06:29.287Z,100256.34
2024-03-05T14:07:33.722Z,100254.55
2024-03-05T14:08:36.020Z,100250.10
2024-03-05T14:09:38.372Z,100252.82
2024-03-05T14:10:41.664Z,100242.21
2024-03-05T14:11:43.788Z,100245.66
2024-03-05T14:12:46.470Z,100251.89
2024-03-05T14:13:49.237Z,100257.20
2024-03-05T14:14:51.523Z,100252.82
2024-03-05T14:15:54.180Z,100254.75
2024-03-05T14:16:57.046Z,100250.30
2024-03-05T14:18:01.537Z,100249.51
2024-03-05T14:19:03.792Z,100247.78
2024-03-05T14:20:08.125Z,100254.81
2024-03-05T14:21:10.581Z,100246.12
2024-03-05T14:22:13.757Z,100248.78
2024-03-05T14:23:15.953Z,100249.64
2024-03-05T14:24:18.609Z,100249.64
2024-03-05T14:25:23.166Z,100253.22
2024-03-05T14:26:26.038Z,100250.63
2024-03-05T14:27:28.109Z,100253.22
2024-03-05T14:28:31.010Z,100251.50
2024-03-05T14:29:34.232Z,100251.50
2024-03-05T14:30:36.409Z,100250.70
2024-03-05T14:31:39.770Z,100250.80
2024-03-05T14:32:43.037Z,100256.97
2024-03-05T14:33:46.066Z,100258.82
2024-03-05T14:34:49.462Z,100257.23
2024-03-05T14:35:52.117Z,100248.48
2024-03-05T14:36:54.707Z,100253.78
2024-03-05T14:37:58.041Z,100260.02
2024-03-05T14:39:00.441Z,100256.63
2024-03-05T14:40:02.891Z,100261.06
2024-03-05T14:41:05.703Z,100256.85
2024-03-05T14:42:09.294Z,100254.27
2024-03-05T14:43:11.925Z,100264.94
2024-03-05T14:44:14.028Z,100258.90
2024-03-05T14:45:17.313Z,100252.73
2024-03-05T14:46:20.488Z,100258.09
2024-03-05T14:47:22.642Z,100259.83
2024-03-05T14:48:25.769Z,100252.73
2024-03-05T14:49:27.938Z,100252.86
2024-03-05T14:50:30.211Z,100260.75
2024-03-05T14:51:32.881Z,100260.69
2024-03-05T14:52:35.328Z,100261.61
2024-03-05T14:53:37.627Z,100259.98
2024-03-05T14:54:39.772Z,100265.19
2024-03-05T14:55:41.939Z,100266.12
2024-03-05T14:56:44.586Z,100265.19
2024-03-05T14:57:46.802Z,100261.77
2024-03-05T14:58:49.014Z,100267.08
2024-03-05T14:59:51.656Z,100266.22
2024-03-05T15:00:53.931Z,100260.91
2024-03-05T15:01:56.442Z,100266.22
2024-03-05T15:02:59.384Z,100267.08
2024-03-05T15:04:01.741Z,100269.79
2024-03-05T15:05:04.850Z,100265.35
2024-03-05T15:06:07.672Z,100264.42
2024-03-05T15:07:09.939Z,100267.08
2024-03-05T15:08:12.217Z,100271.52
2024-03-05T15:09:15.028Z,100270.66
2024-03-05T15:10:17.737Z,100271.58
2024-03-05T15:11:20.355Z,100274.36
2024-03-05T15:12:23.017Z,100272.56
2024-03-05T15:13:25.241Z,100273.49
2024-03-05T15:14:27.368Z,100276.08
2024-03-05T15:15:29.966Z,100273.49
2024-03-05T15:16:32.713Z,100277.01
2024-03-05T15:17:36.265Z,100270.91
2024-03-05T15:18:38.572Z,100284.03
2024-03-05T15:19:40.740Z,100274.36
2024-03-05T15:20:43.389Z,100280.52
2024-03-05T15:21:46.684Z,100274.42
2024-03-05T15:22:49.385Z,100279.78
2024-03-05T15:23:52.089Z,100288.66
2024-03-05T15:24:54.277Z,100282.50
2024-03-05T15:25:56.585Z,100285.21
2024-03-05T15:27:05.292Z,100280.90
2024-03-05T15:28:05.276Z,100282.72
2024-03-05T15:29:07.791Z,100283.55
2024-03-05T15:30:12.295Z,100285.37
2024-03-05T15:31:15.160Z,100282.72
2024-03-05T15:32:17.355Z,100288.94
2024-03-05T15:33:19.464Z,100286.36
2024-03-05T15:34:21.638Z,100287.34
2024-03-05T15:35:24.115Z,100291.72
2024-03-05T15:36:26.730Z,100285.61
2024-03-05T15:37:29.409Z,100287.28
2024-03-05T15:38:32.447Z,100294.49
2024-03-05T15:39:35.016Z,100288.33
2024-03-05T15:40:37.764Z,100294.55
2024-03-05T15:41:40.073Z,100287.59
2024-03-05T15:42:57.365Z,100293.69
2024-03-05T15:43:59.768Z,100297.27
2024-03-05T15:45:02.500Z,100295.48
2024-03-05T15:46:05.517Z,100294.55
2024-03-05T15:47:08.295Z,100299.11
2024-03-05T15:48:10.485Z,100300.03
2024-03-05T15:49:13.581Z,100296.52
2024-03-05T15:50:18.482Z,100294.73
2024-03-05T15:51:20.577Z,100300.99
2024-03-05T15:52:22.685Z,100304.63
2024-03-05T15:53:26.210Z,100298.47
2024-03-05T15:54:28.357Z,100300.25
2024-03-05T15:55:31.765Z,100302.04
2024-03-05T15:56:34.179Z,100299.33
2024-03-05T15:57:37.573Z,100295.94
2024-03-05T15:58:41.079Z,100306.53
2024-03-05T15:59:46.932Z,100300.44
2024-03-05T16:00:49.330Z,100307.40
2024-03-05T16:01:51.913Z,100304.75
2024-03-05T16:04:43.113Z,100298.06
2024-03-05T16:05:33.461Z,100299.63
2024-03-05T16:06:34.680Z,100296.12
2024-03-05T16:07:36.922Z,100300.44
2024-03-05T16:08:40.125Z,100300.55
2024-03-05T16:09:42.226Z,100307.58
2024-03-05T16:10:48.555Z,100300.55
2024-03-05T16:11:48.614Z,100296.98
2024-03-05T16:12:52.600Z,100301.42
2024-03-05T16:13:55.076Z,100304.13
2024-03-05T16:14:57.893Z,100307.58
2024-03-05T16:16:00.231Z,100300.55
2024-03-05T16:17:02.568Z,100300.55
2024-03-05T16:18:05.708Z,100300.55
2024-03-05T16:19:08.118Z,100296.06
2024-03-05T16:20:10.738Z,100310.29
2024-03-05T16:21:13.373Z,100307.70
2024-03-05T16:22:16.032Z,100308.56
2024-03-05T16:23:18.477Z,100301.69
2024-03-05T16:24:20.516Z,100301.75
2024-03-05T16:25:27.659Z,100304.40
2024-03-05T16:26:31.970Z,100304.40
2024-03-05T16:27:35.544Z,100305.44
2024-03-05T16:28:38.411Z,100309.02
2024-03-05T16:29:40.674Z,100304.64
2024-03-05T16:30:43.670Z,100307.29
2024-03-05T16:31:45.891Z,100314.38
2024-03-05T16:32:48.328Z,100304.64
2024-03-05T16:33:50.990Z,100314.38
2024-03-05T16:34:53.107Z,100313.39
2024-03-05T16:35:55.256Z,100308.20
2024-03-05T16:36:57.483Z,100314.31
2024-03-05T16:38:01.261Z,100310.86
2024-03-05T16:39:04.153Z,100310.86
2024-03-05T16:40:09.537Z,100312.64
2024-03-05T16:41:11.823Z,100313.62
2024-03-05T16:42:14.579Z,100307.56
2024-03-05T16:43:18.258Z,100305.03
2024-03-05T16:44:20.909Z,100313.89
2024-03-05T16:45:24.483Z,100311.24
2024-03-05T16:46:26.904Z,100314.81
2024-03-05T16:47:29.538Z,100309.70
2024-03-05T16:48:31.671Z,100309.63
2024-03-05T16:49:34.288Z,100308.98
2024-03-05T16:50:37.691Z,100311.69
2024-03-05T16:51:40.156Z,100312.61
2024-03-05T16:52:47.283Z,100306.50
2024-03-05T16:53:49.934Z,100310.05
2024-03-05T16:54:51.990Z,100306.59
2024-03-05T16:55:54.619Z,100305.98
2024-03-05T16:56:57.248Z,100313.84
2024-03-05T16:57:59.464Z,100316.69
2024-03-05T16:59:02.334Z,100314.97
2024-03-05T17:01:16.772Z,100305.78
2024-03-05T17:02:19.180Z,100315.19
2024-03-05T17:03:22.035Z,100316.16
2024-03-05T17:04:24.316Z,100316.16
2024-03-05T17:05:28.824Z,100318.87
2024-03-05T17:06:31.824Z,100319.73
2024-03-05T17:07:34.491Z,100320.74
2024-03-05T17:08:37.118Z,100315.45
2024-03-05T17:09:39.775Z,100318.09
2024-03-05T17:10:42.710Z,100308.43
2024-03-05T17:11:44.816Z,100319.13
2024-03-05T17:12:48.313Z,100314.64
2024-03-05T17:13:51.054Z,100315.67
2024-03-05T17:14:53.371Z,100313.95
2024-03-05T17:15:56.519Z,100321.83
2024-03-05T17:16:59.099Z,100316.64
2024-03-05T17:18:04.868Z,100318.42
2024-03-05T17:19:06.980Z,100320.36
2024-03-05T17:20:10.789Z,100317.88
2024-03-05T17:21:13.061Z,100319.60
2024-03-05T17:22:15.735Z,100310.86
2024-03-05T17:23:22.243Z,100317.98
2024-03-05T17:24:23.933Z,100315.34
2024-03-05T17:25:28.551Z,100314.53
2024-03-05T17:26:31.702Z,100322.47
2024-03-05T17:27:34.135Z,100322.47
2024-03-05T17:28:36.560Z,100319.88
2024-03-05T17:29:40.450Z,100325.22
2024-03-05T17:30:42.771Z,100321.80
2024-03-05T17:31:46.818Z,100321.80
2024-03-05T17:32:49.782Z,100325.30
2024-03-05T17:33:51.929Z,100316.51
2024-03-05T17:34:54.939Z,100321.80
2024-03-05T17:35:59.027Z,100328.00
2024-03-05T17:37:02.536Z,100322.72
2024-03-05T17:38:05.284Z,100319.20
2024-03-05T17:39:07.577Z,100321.91
2024-03-05T17:40:11.784Z,100320.06
2024-03-05T17:41:14.150Z,100321.91
2024-03-05T17:42:16.688Z,100321.91
2024-03-05T17:43:19.990Z,100317.48
2024-03-05T17:44:22.721Z,100324.55
2024-03-05T17:45:25.108Z,100320.28
2024-03-05T17:46:28.520Z,100323.74
2024-03-05T17:48:45.657Z,100321.66
2024-03-05T17:49:48.102Z,100314.23
2024-03-05T17:50:50.986Z,100317.75
2024-03-05T17:51:53.765Z,100330.05
2024-03-05T17:52:56.389Z,100316.02
2024-03-05T17:53:59.054Z,100315.10
2024-03-05T17:55:01.911Z,100327.52
2024-03-05T17:56:05.033Z,100323.14
2024-03-05T17:57:08.299Z,100322.23
2024-03-05T17:58:11.745Z,100322.23
2024-03-05T17:59:14.317Z,100323.28
2024-03-05T18:00:19.449Z,100331.33
2024-03-05T18:01:22.378Z,100326.03
2024-03-05T18:02:24.797Z,100330.56
2024-03-05T18:03:27.384Z,100327.87
2024-03-05T18:04:29.606Z,100326.14
2024-03-05T18:05:32.243Z,100323.50